sensor_id;sensor_type;location;lat;lon;timestamp;temperature;humidity
37285;DHT22;23172;53.550;9.964;2023-04-25T00:02:37;10.70;97.50
37285;DHT22;23172;53.550;9.964;2023-04-25T00:07:40;10.70;97.90
37285;DHT22;23172;53.550;9.964;2023-04-25T00:12:43;10.70;97.70
37285;DHT22;23172;53.550;9.964;2023-04-25T00:17:46;10.80;97.60
37285;DHT22;23172;53.550;9.964;2023-04-25T00:22:49;10.90;97.40
37285;DHT22;23172;53.550;9.964;2023-04-25T00:27:51;11.00;97.20
37285;DHT22;23172;53.550;9.964;2023-04-25T00:32:53;10.90;96.80
37285;DHT22;23172;53.550;9.964;2023-04-25T00:37:56;11.00;96.60
37285;DHT22;23172;53.550;9.964;2023-04-25T00:42:58;10.90;96.30
37285;DHT22;23172;53.550;9.964;2023-04-25T00:48:00;10.90;96.10
37285;DHT22;23172;53.550;9.964;2023-04-25T00:53:03;10.90;95.80
37285;DHT22;23172;53.550;9.964;2023-04-25T00:58:05;10.80;95.60
37285;DHT22;23172;53.550;9.964;2023-04-25T01:03:07;10.70;95.30
37285;DHT22;23172;53.550;9.964;2023-04-25T01:08:12;10.70;95.40
37285;DHT22;23172;53.550;9.964;2023-04-25T01:13:13;10.80;95.00
37285;DHT22;23172;53.550;9.964;2023-04-25T01:18:16;10.80;94.90
37285;DHT22;23172;53.550;9.964;2023-04-25T01:23:19;10.80;94.90
37285;DHT22;23172;53.550;9.964;2023-04-25T01:28:21;10.80;94.60
37285;DHT22;23172;53.550;9.964;2023-04-25T01:33:23;10.80;94.40
37285;DHT22;23172;53.550;9.964;2023-04-25T01:38:27;10.70;94.00
37285;DHT22;23172;53.550;9.964;2023-04-25T01:43:29;10.70;94.00
37285;DHT22;23172;53.550;9.964;2023-04-25T01:48:31;10.60;93.80
37285;DHT22;23172;53.550;9.964;2023-04-25T01:53:34;10.60;93.50
37285;DHT22;23172;53.550;9.964;2023-04-25T01:58:36;10.50;93.30
37285;DHT22;23172;53.550;9.964;2023-04-25T02:03:37;10.60;93.30
37285;DHT22;23172;53.550;9.964;2023-04-25T02:08:41;10.50;93.00
37285;DHT22;23172;53.550;9.964;2023-04-25T02:13:43;10.50;92.90
37285;DHT22;23172;53.550;9.964;2023-04-25T02:18:44;10.50;92.90
37285;DHT22;23172;53.550;9.964;2023-04-25T02:23:48;10.50;92.60
37285;DHT22;23172;53.550;9.964;2023-04-25T02:28:52;10.50;92.40
37285;DHT22;23172;53.550;9.964;2023-04-25T02:33:54;10.40;92.20
37285;DHT22;23172;53.550;9.964;2023-04-25T02:38:57;10.40;92.00
37285;DHT22;23172;53.550;9.964;2023-04-25T02:43:59;10.40;91.90
37285;DHT22;23172;53.550;9.964;2023-04-25T02:49:01;10.40;91.60
37285;DHT22;23172;53.550;9.964;2023-04-25T02:54:04;10.40;91.30
37285;DHT22;23172;53.550;9.964;2023-04-25T02:59:07;10.30;90.80
37285;DHT22;23172;53.550;9.964;2023-04-25T03:04:08;10.20;90.60
37285;DHT22;23172;53.550;9.964;2023-04-25T03:29:22;10.30;90.50
37285;DHT22;23172;53.550;9.964;2023-04-25T03:34:26;9.90;88.50
37285;DHT22;23172;53.550;9.964;2023-04-25T03:39:30;9.80;87.70
37285;DHT22;23172;53.550;9.964;2023-04-25T03:44:32;9.70;86.90
37285;DHT22;23172;53.550;9.964;2023-04-25T03:49:34;9.70;86.70
37285;DHT22;23172;53.550;9.964;2023-04-25T03:54:38;9.70;86.10
37285;DHT22;23172;53.550;9.964;2023-04-25T03:59:39;9.70;84.50
37285;DHT22;23172;53.550;9.964;2023-04-25T04:04:41;9.70;84.30
37285;DHT22;23172;53.550;9.964;2023-04-25T04:09:45;9.70;82.40
37285;DHT22;23172;53.550;9.964;2023-04-25T04:14:47;9.60;81.70
37285;DHT22;23172;53.550;9.964;2023-04-25T04:19:49;9.50;80.80
37285;DHT22;23172;53.550;9.964;2023-04-25T04:24:52;9.40;80.40
37285;DHT22;23172;53.550;9.964;2023-04-25T04:29:54;9.40;80.00
37285;DHT22;23172;53.550;9.964;2023-04-25T04:34:56;9.30;79.70
37285;DHT22;23172;53.550;9.964;2023-04-25T04:40:00;9.30;79.10
37285;DHT22;23172;53.550;9.964;2023-04-25T04:45:07;9.20;78.80
37285;DHT22;23172;53.550;9.964;2023-04-25T04:50:10;9.20;80.20
37285;DHT22;23172;53.550;9.964;2023-04-25T04:55:13;9.30;79.70
37285;DHT22;23172;53.550;9.964;2023-04-25T05:00:15;9.40;79.20
37285;DHT22;23172;53.550;9.964;2023-04-25T05:05:17;9.40;79.70
37285;DHT22;23172;53.550;9.964;2023-04-25T05:10:20;9.40;79.40
37285;DHT22;23172;53.550;9.964;2023-04-25T05:15:22;9.50;79.70
37285;DHT22;23172;53.550;9.964;2023-04-25T05:20:24;9.60;79.10
37285;DHT22;23172;53.550;9.964;2023-04-25T05:25:27;9.80;78.70
37285;DHT22;23172;53.550;9.964;2023-04-25T05:30:29;9.90;78.30
37285;DHT22;23172;53.550;9.964;2023-04-25T05:35:31;9.70;77.60
37285;DHT22;23172;53.550;9.964;2023-04-25T05:40:34;9.70;77.40
37285;DHT22;23172;53.550;9.964;2023-04-25T05:45:36;9.80;77.90
37285;DHT22;23172;53.550;9.964;2023-04-25T05:50:38;9.80;78.40
37285;DHT22;23172;53.550;9.964;2023-04-25T05:55:41;9.80;78.30
37285;DHT22;23172;53.550;9.964;2023-04-25T06:00:43;9.70;79.20
37285;DHT22;23172;53.550;9.964;2023-04-25T06:05:46;9.90;80.00
37285;DHT22;23172;53.550;9.964;2023-04-25T06:10:49;10.00;79.20
37285;DHT22;23172;53.550;9.964;2023-04-25T06:15:51;10.00;78.30
37285;DHT22;23172;53.550;9.964;2023-04-25T06:20:53;10.20;77.80
37285;DHT22;23172;53.550;9.964;2023-04-25T06:25:56;10.30;77.70
37285;DHT22;23172;53.550;9.964;2023-04-25T06:30:58;10.10;77.80
37285;DHT22;23172;53.550;9.964;2023-04-25T06:36:00;10.10;78.60
37285;DHT22;23172;53.550;9.964;2023-04-25T06:41:03;10.20;79.50
37285;DHT22;23172;53.550;9.964;2023-04-25T06:46:05;10.10;79.60
37285;DHT22;23172;53.550;9.964;2023-04-25T06:51:07;10.20;80.20
37285;DHT22;23172;53.550;9.964;2023-04-25T06:56:11;10.30;79.70
37285;DHT22;23172;53.550;9.964;2023-04-25T07:01:12;10.70;78.90
37285;DHT22;23172;53.550;9.964;2023-04-25T07:06:14;10.90;77.40
37285;DHT22;23172;53.550;9.964;2023-04-25T07:11:18;11.00;76.30
37285;DHT22;23172;53.550;9.964;2023-04-25T07:16:20;11.10;76.30
37285;DHT22;23172;53.550;9.964;2023-04-25T07:21:22;11.60;75.50
37285;DHT22;23172;53.550;9.964;2023-04-25T07:26:25;11.80;73.90
37285;DHT22;23172;53.550;9.964;2023-04-25T07:31:27;11.70;73.30
37285;DHT22;23172;53.550;9.964;2023-04-25T07:36:29;11.70;72.60
37285;DHT22;23172;53.550;9.964;2023-04-25T07:41:32;11.70;71.50
37285;DHT22;23172;53.550;9.964;2023-04-25T07:46:35;11.80;70.70
37285;DHT22;23172;53.550;9.964;2023-04-25T07:51:37;12.00;69.80
37285;DHT22;23172;53.550;9.964;2023-04-25T07:56:40;12.30;69.30
37285;DHT22;23172;53.550;9.964;2023-04-25T08:01:42;12.60;68.60
37285;DHT22;23172;53.550;9.964;2023-04-25T08:06:44;13.20;66.60
37285;DHT22;23172;53.550;9.964;2023-04-25T08:11:47;13.60;64.90
37285;DHT22;23172;53.550;9.964;2023-04-25T08:16:49;13.80;63.80
37285;DHT22;23172;53.550;9.964;2023-04-25T08:21:51;14.60;60.80
37285;DHT22;23172;53.550;9.964;2023-04-25T08:26:54;14.40;59.20
37285;DHT22;23172;53.550;9.964;2023-04-25T08:31:56;14.00;59.00
37285;DHT22;23172;53.550;9.964;2023-04-25T08:36:58;13.80;58.20
37285;DHT22;23172;53.550;9.964;2023-04-25T08:42:02;14.40;58.10
37285;DHT22;23172;53.550;9.964;2023-04-25T08:47:07;15.40;57.70
37285;DHT22;23172;53.550;9.964;2023-04-25T08:52:09;16.50;54.30
37285;DHT22;23172;53.550;9.964;2023-04-25T08:57:14;15.70;53.40
37285;DHT22;23172;53.550;9.964;2023-04-25T09:02:17;15.00;53.90
37285;DHT22;23172;53.550;9.964;2023-04-25T09:07:21;14.60;54.70
37285;DHT22;23172;53.550;9.964;2023-04-25T09:12:24;14.50;54.80
37285;DHT22;23172;53.550;9.964;2023-04-25T09:17:27;14.00;54.40
37285;DHT22;23172;53.550;9.964;2023-04-25T09:22:30;13.20;55.10
37285;DHT22;23172;53.550;9.964;2023-04-25T09:27:33;13.10;55.70
37285;DHT22;23172;53.550;9.964;2023-04-25T09:32:35;13.70;55.70
37285;DHT22;23172;53.550;9.964;2023-04-25T09:37:37;17.00;55.20
37285;DHT22;23172;53.550;9.964;2023-04-25T09:42:41;23.90;47.20
37285;DHT22;23172;53.550;9.964;2023-04-25T09:47:43;22.70;42.70
37285;DHT22;23172;53.550;9.964;2023-04-25T09:52:45;20.30;46.90
37285;DHT22;23172;53.550;9.964;2023-04-25T09:57:51;18.90;47.20
37285;DHT22;23172;53.550;9.964;2023-04-25T10:02:56;17.60;48.30
37285;DHT22;23172;53.550;9.964;2023-04-25T10:08:00;16.90;49.30
37285;DHT22;23172;53.550;9.964;2023-04-25T10:13:05;17.10;49.50
37285;DHT22;23172;53.550;9.964;2023-04-25T10:18:08;20.80;47.60
37285;DHT22;23172;53.550;9.964;2023-04-25T10:23:12;25.70;41.50
37285;DHT22;23172;53.550;9.964;2023-04-25T10:28:16;23.20;36.70
37285;DHT22;23172;53.550;9.964;2023-04-25T10:33:18;21.30;38.80
37285;DHT22;23172;53.550;9.964;2023-04-25T10:38:30;26.60;35.20
37285;DHT22;23172;53.550;9.964;2023-04-25T10:43:35;25.70;32.20
37285;DHT22;23172;53.550;9.964;2023-04-25T10:48:37;24.60;35.40
37285;DHT22;23172;53.550;9.964;2023-04-25T10:53:45;28.10;31.90
37285;DHT22;23172;53.550;9.964;2023-04-25T10:58:49;27.30;30.20
37285;DHT22;23172;53.550;9.964;2023-04-25T11:03:57;24.30;30.90
37285;DHT22;23172;53.550;9.964;2023-04-25T11:09:01;23.90;32.30
37285;DHT22;23172;53.550;9.964;2023-04-25T11:14:04;22.40;34.60
37285;DHT22;23172;53.550;9.964;2023-04-25T11:19:06;22.80;35.50
37285;DHT22;23172;53.550;9.964;2023-04-25T11:24:08;26.30;33.10
37285;DHT22;23172;53.550;9.964;2023-04-25T11:29:11;30.10;29.50
37285;DHT22;23172;53.550;9.964;2023-04-25T11:34:17;30.60;27.90
37285;DHT22;23172;53.550;9.964;2023-04-25T11:39:19;28.80;26.90
37285;DHT22;23172;53.550;9.964;2023-04-25T11:44:23;24.40;29.80
37285;DHT22;23172;53.550;9.964;2023-04-25T11:49:30;21.90;32.80
37285;DHT22;23172;53.550;9.964;2023-04-25T11:54:35;20.80;35.40
37285;DHT22;23172;53.550;9.964;2023-04-25T11:59:38;20.40;36.20
37285;DHT22;23172;53.550;9.964;2023-04-25T12:04:41;20.70;36.80
37285;DHT22;23172;53.550;9.964;2023-04-25T12:09:43;23.50;35.50
37285;DHT22;23172;53.550;9.964;2023-04-25T12:14:48;28.50;31.10
37285;DHT22;23172;53.550;9.964;2023-04-25T12:19:50;30.00;28.90
37285;DHT22;23172;53.550;9.964;2023-04-25T12:24:52;29.20;27.10
37285;DHT22;23172;53.550;9.964;2023-04-25T12:29:56;28.20;26.20
37285;DHT22;23172;53.550;9.964;2023-04-25T12:34:59;24.60;27.30
37285;DHT22;23172;53.550;9.964;2023-04-25T12:40:00;23.40;28.60
37285;DHT22;23172;53.550;9.964;2023-04-25T12:45:06;24.30;29.00
37285;DHT22;23172;53.550;9.964;2023-04-25T12:50:08;27.20;26.80
37285;DHT22;23172;53.550;9.964;2023-04-25T12:55:10;26.60;25.90
37285;DHT22;23172;53.550;9.964;2023-04-25T13:00:15;23.20;28.10
37285;DHT22;23172;53.550;9.964;2023-04-25T13:05:18;21.10;31.90
37285;DHT22;23172;53.550;9.964;2023-04-25T13:10:20;22.90;31.10
37285;DHT22;23172;53.550;9.964;2023-04-25T13:15:23;23.90;29.40
37285;DHT22;23172;53.550;9.964;2023-04-25T13:20:26;22.00;29.90
37285;DHT22;23172;53.550;9.964;2023-04-25T13:25:27;18.90;35.00
37285;DHT22;23172;53.550;9.964;2023-04-25T13:30:31;16.60;43.00
37285;DHT22;23172;53.550;9.964;2023-04-25T13:35:33;15.50;45.30
37285;DHT22;23172;53.550;9.964;2023-04-25T13:40:35;15.90;46.20
37285;DHT22;23172;53.550;9.964;2023-04-25T13:45:39;17.40;45.00
37285;DHT22;23172;53.550;9.964;2023-04-25T13:50:41;18.30;42.80
37285;DHT22;23172;53.550;9.964;2023-04-25T13:55:43;18.10;42.00
37285;DHT22;23172;53.550;9.964;2023-04-25T14:00:46;16.00;45.70
37285;DHT22;23172;53.550;9.964;2023-04-25T14:05:48;14.50;51.20
37285;DHT22;23172;53.550;9.964;2023-04-25T14:10:50;14.10;52.10
37285;DHT22;23172;53.550;9.964;2023-04-25T14:15:53;13.70;51.90
37285;DHT22;23172;53.550;9.964;2023-04-25T14:20:56;14.30;52.60
37285;DHT22;23172;53.550;9.964;2023-04-25T14:25:58;15.20;51.30
37285;DHT22;23172;53.550;9.964;2023-04-25T14:31:01;16.10;50.00
37285;DHT22;23172;53.550;9.964;2023-04-25T14:36:03;16.00;48.80
37285;DHT22;23172;53.550;9.964;2023-04-25T14:41:05;15.50;49.10
37285;DHT22;23172;53.550;9.964;2023-04-25T14:46:08;15.90;48.90
37285;DHT22;23172;53.550;9.964;2023-04-25T14:51:11;16.20;48.30
37285;DHT22;23172;53.550;9.964;2023-04-25T14:56:13;16.50;47.40
37285;DHT22;23172;53.550;9.964;2023-04-25T15:01:16;16.40;46.10
37285;DHT22;23172;53.550;9.964;2023-04-25T15:06:18;16.50;45.40
37285;DHT22;23172;53.550;9.964;2023-04-25T15:11:20;16.10;44.20
37285;DHT22;23172;53.550;9.964;2023-04-25T15:16:23;15.30;45.00
37285;DHT22;23172;53.550;9.964;2023-04-25T15:21:26;15.00;46.40
37285;DHT22;23172;53.550;9.964;2023-04-25T15:26:28;14.70;47.30
37285;DHT22;23172;53.550;9.964;2023-04-25T15:31:31;14.60;48.60
37285;DHT22;23172;53.550;9.964;2023-04-25T15:36:33;14.50;48.30
37285;DHT22;23172;53.550;9.964;2023-04-25T15:41:36;14.30;48.50
37285;DHT22;23172;53.550;9.964;2023-04-25T15:46:39;14.20;48.80
37285;DHT22;23172;53.550;9.964;2023-04-25T15:51:41;14.10;48.70
37285;DHT22;23172;53.550;9.964;2023-04-25T15:56:43;14.00;49.10
37285;DHT22;23172;53.550;9.964;2023-04-25T16:01:47;13.70;48.50
37285;DHT22;23172;53.550;9.964;2023-04-25T16:06:49;13.40;48.20
37285;DHT22;23172;53.550;9.964;2023-04-25T16:11:53;13.10;48.00
37285;DHT22;23172;53.550;9.964;2023-04-25T16:16:57;12.90;48.50
37285;DHT22;23172;53.550;9.964;2023-04-25T16:21:59;12.80;48.40
37285;DHT22;23172;53.550;9.964;2023-04-25T16:27:01;12.80;48.30
37285;DHT22;23172;53.550;9.964;2023-04-25T16:32:05;12.50;47.90
37285;DHT22;23172;53.550;9.964;2023-04-25T16:37:09;12.30;48.60
37285;DHT22;23172;53.550;9.964;2023-04-25T16:42:11;12.10;49.40
37285;DHT22;23172;53.550;9.964;2023-04-25T16:47:14;12.00;49.70
37285;DHT22;23172;53.550;9.964;2023-04-25T16:52:16;12.00;50.30
37285;DHT22;23172;53.550;9.964;2023-04-25T16:57:23;11.90;51.00
37285;DHT22;23172;53.550;9.964;2023-04-25T17:02:26;11.90;51.40
37285;DHT22;23172;53.550;9.964;2023-04-25T17:07:31;11.90;51.90
37285;DHT22;23172;53.550;9.964;2023-04-25T17:12:36;11.90;51.70
37285;DHT22;23172;53.550;9.964;2023-04-25T17:17:39;11.90;52.00
37285;DHT22;23172;53.550;9.964;2023-04-25T17:22:41;11.70;53.60
37285;DHT22;23172;53.550;9.964;2023-04-25T17:27:43;11.70;55.10
37285;DHT22;23172;53.550;9.964;2023-04-25T17:32:46;11.40;55.10
37285;DHT22;23172;53.550;9.964;2023-04-25T17:37:48;11.30;55.30
37285;DHT22;23172;53.550;9.964;2023-04-25T17:42:50;11.20;55.20
37285;DHT22;23172;53.550;9.964;2023-04-25T17:47:54;11.30;55.10
37285;DHT22;23172;53.550;9.964;2023-04-25T17:52:56;11.20;55.40
37285;DHT22;23172;53.550;9.964;2023-04-25T17:57:57;11.00;56.00
37285;DHT22;23172;53.550;9.964;2023-04-25T18:03:01;10.80;56.50
37285;DHT22;23172;53.550;9.964;2023-04-25T18:08:03;10.70;57.00
37285;DHT22;23172;53.550;9.964;2023-04-25T18:13:06;10.70;57.50
37285;DHT22;23172;53.550;9.964;2023-04-25T18:18:10;10.70;57.50
37285;DHT22;23172;53.550;9.964;2023-04-25T18:23:19;10.70;57.40
37285;DHT22;23172;53.550;9.964;2023-04-25T18:28:21;10.60;57.60
37285;DHT22;23172;53.550;9.964;2023-04-25T18:33:24;10.50;57.60
37285;DHT22;23172;53.550;9.964;2023-04-25T18:38:26;10.40;57.70
37285;DHT22;23172;53.550;9.964;2023-04-25T18:43:28;10.40;57.90
37285;DHT22;23172;53.550;9.964;2023-04-25T18:48:31;10.40;58.00
37285;DHT22;23172;53.550;9.964;2023-04-25T18:53:34;10.30;58.10
37285;DHT22;23172;53.550;9.964;2023-04-25T18:58:36;10.30;58.40
37285;DHT22;23172;53.550;9.964;2023-04-25T19:03:40;10.30;59.00
37285;DHT22;23172;53.550;9.964;2023-04-25T19:08:41;10.10;59.80
37285;DHT22;23172;53.550;9.964;2023-04-25T19:13:43;10.10;60.30
37285;DHT22;23172;53.550;9.964;2023-04-25T19:18:46;10.10;61.50
37285;DHT22;23172;53.550;9.964;2023-04-25T19:23:51;9.90;60.80
37285;DHT22;23172;53.550;9.964;2023-04-25T19:29:03;9.80;61.30
37285;DHT22;23172;53.550;9.964;2023-04-25T19:34:07;9.70;61.40
37285;DHT22;23172;53.550;9.964;2023-04-25T19:39:09;9.70;61.30
37285;DHT22;23172;53.550;9.964;2023-04-25T19:44:11;9.60;61.40
37285;DHT22;23172;53.550;9.964;2023-04-25T19:49:14;9.50;61.90
37285;DHT22;23172;53.550;9.964;2023-04-25T19:54:16;9.50;62.40
37285;DHT22;23172;53.550;9.964;2023-04-25T19:59:18;9.50;64.10
37285;DHT22;23172;53.550;9.964;2023-04-25T20:04:22;9.40;63.70
37285;DHT22;23172;53.550;9.964;2023-04-25T20:09:24;9.30;65.10
37285;DHT22;23172;53.550;9.964;2023-04-25T20:14:25;9.20;65.50
37285;DHT22;23172;53.550;9.964;2023-04-25T20:19:29;9.30;65.50
37285;DHT22;23172;53.550;9.964;2023-04-25T20:24:32;9.30;65.50
37285;DHT22;23172;53.550;9.964;2023-04-25T20:29:34;9.30;65.80
37285;DHT22;23172;53.550;9.964;2023-04-25T20:34:37;9.20;66.30
37285;DHT22;23172;53.550;9.964;2023-04-25T20:39:39;9.10;66.30
37285;DHT22;23172;53.550;9.964;2023-04-25T20:44:41;9.00;67.20
37285;DHT22;23172;53.550;9.964;2023-04-25T20:49:45;8.80;68.00
37285;DHT22;23172;53.550;9.964;2023-04-25T20:54:47;8.80;69.00
37285;DHT22;23172;53.550;9.964;2023-04-25T20:59:50;8.70;69.70
37285;DHT22;23172;53.550;9.964;2023-04-25T21:04:53;8.70;70.30
37285;DHT22;23172;53.550;9.964;2023-04-25T21:09:55;8.60;71.10
37285;DHT22;23172;53.550;9.964;2023-04-25T21:14:57;8.60;71.00
37285;DHT22;23172;53.550;9.964;2023-04-25T21:20:01;8.70;71.50
37285;DHT22;23172;53.550;9.964;2023-04-25T21:25:09;8.70;72.10
37285;DHT22;23172;53.550;9.964;2023-04-25T21:30:12;8.80;71.90
37285;DHT22;23172;53.550;9.964;2023-04-25T21:35:17;8.70;72.90
37285;DHT22;23172;53.550;9.964;2023-04-25T21:40:20;8.60;73.50
37285;DHT22;23172;53.550;9.964;2023-04-25T21:45:22;8.60;74.50
37285;DHT22;23172;53.550;9.964;2023-04-25T21:50:25;8.60;75.80
37285;DHT22;23172;53.550;9.964;2023-04-25T21:55:27;8.60;76.20
37285;DHT22;23172;53.550;9.964;2023-04-25T22:00:29;8.60;77.50
37285;DHT22;23172;53.550;9.964;2023-04-25T22:05:32;8.50;78.70
37285;DHT22;23172;53.550;9.964;2023-04-25T22:10:35;8.40;80.80
37285;DHT22;23172;53.550;9.964;2023-04-25T22:15:37;8.30;83.30
37285;DHT22;23172;53.550;9.964;2023-04-25T22:20:41;8.20;83.70
37285;DHT22;23172;53.550;9.964;2023-04-25T22:25:43;8.20;83.50
37285;DHT22;23172;53.550;9.964;2023-04-25T22:30:45;8.20;84.30
37285;DHT22;23172;53.550;9.964;2023-04-25T22:35:49;8.10;85.20
37285;DHT22;23172;53.550;9.964;2023-04-25T22:40:50;8.10;85.90
37285;DHT22;23172;53.550;9.964;2023-04-25T22:45:52;8.10;87.00
37285;DHT22;23172;53.550;9.964;2023-04-25T22:51:02;8.10;88.00
37285;DHT22;23172;53.550;9.964;2023-04-25T23:01:06;8.00;89.40
37285;DHT22;23172;53.550;9.964;2023-04-25T23:06:10;7.80;90.00
37285;DHT22;23172;53.550;9.964;2023-04-25T23:11:12;7.70;90.20
37285;DHT22;23172;53.550;9.964;2023-04-25T23:16:15;7.70;90.20
37285;DHT22;23172;53.550;9.964;2023-04-25T23:21:18;7.80;90.10
37285;DHT22;23172;53.550;9.964;2023-04-25T23:26:21;7.70;90.20
37285;DHT22;23172;53.550;9.964;2023-04-25T23:31:22;7.70;90.30
37285;DHT22;23172;53.550;9.964;2023-04-25T23:36:26;7.60;90.30
37285;DHT22;23172;53.550;9.964;2023-04-25T23:41:28;7.70;90.50
37285;DHT22;23172;53.550;9.964;2023-04-25T23:46:30;7.60;90.60
37285;DHT22;23172;53.550;9.964;2023-04-25T23:51:33;7.70;90.50
37285;DHT22;23172;53.550;9.964;2023-04-25T23:56:35;7.70;90.60
